sensor_id;sensor_type;location;lat;lon;timestamp;pressure;altitude;pressure_sealevel;temperature
66473;BMP280;70264;48.802;9.224;2023-07-29T00:02:19;98571.69;;;18.63
66473;BMP280;70264;48.802;9.224;2023-07-29T00:04:44;98565.19;;;18.60
66473;BMP280;70264;48.802;9.224;2023-07-29T00:07:09;98566.78;;;18.61
66473;BMP280;70264;48.802;9.224;2023-07-29T00:09:34;98566.00;;;18.61
66473;BMP280;70264;48.802;9.224;2023-07-29T00:12:03;98568.31;;;18.62
66473;BMP280;70264;48.802;9.224;2023-07-29T00:14:31;98558.28;;;18.66
66473;BMP280;70264;48.802;9.224;2023-07-29T00:16:58;98559.28;;;18.65
66473;BMP280;70264;48.802;9.224;2023-07-29T00:19:24;98547.13;;;18.65
66473;BMP280;70264;48.802;9.224;2023-07-29T00:21:53;98551.78;;;18.63
66473;BMP280;70264;48.802;9.224;2023-07-29T00:24:18;98549.97;;;18.64
66473;BMP280;70264;48.802;9.224;2023-07-29T00:26:44;98553.34;;;18.64
66473;BMP280;70264;48.802;9.224;2023-07-29T00:29:09;98550.50;;;18.66
66473;BMP280;70264;48.802;9.224;2023-07-29T00:31:34;98540.41;;;18.64
66473;BMP280;70264;48.802;9.224;2023-07-29T00:34:02;98546.34;;;18.65
66473;BMP280;70264;48.802;9.224;2023-07-29T00:36:27;98551.50;;;18.60
66473;BMP280;70264;48.802;9.224;2023-07-29T00:38:54;98551.94;;;18.57
66473;BMP280;70264;48.802;9.224;2023-07-29T00:41:25;98551.25;;;18.61
66473;BMP280;70264;48.802;9.224;2023-07-29T00:43:53;98543.53;;;18.66
66473;BMP280;70264;48.802;9.224;2023-07-29T00:46:20;98549.44;;;18.62
66473;BMP280;70264;48.802;9.224;2023-07-29T00:48:49;98540.41;;;18.64
66473;BMP280;70264;48.802;9.224;2023-07-29T00:51:21;98540.16;;;18.66
66473;BMP280;70264;48.802;9.224;2023-07-29T00:53:48;98539.09;;;18.62
66473;BMP280;70264;48.802;9.224;2023-07-29T00:56:16;98542.44;;;18.62
66473;BMP280;70264;48.802;9.224;2023-07-29T00:58:44;98547.13;;;18.65
66473;BMP280;70264;48.802;9.224;2023-07-29T01:01:11;98544.00;;;18.63
66473;BMP280;70264;48.802;9.224;2023-07-29T01:03:37;98540.94;;;18.66
66473;BMP280;70264;48.802;9.224;2023-07-29T01:11:27;98535.41;;;18.58
66473;BMP280;70264;48.802;9.224;2023-07-29T01:16:34;98525.03;;;18.58
66473;BMP280;70264;48.802;9.224;2023-07-29T01:19:07;98516.78;;;18.61
66473;BMP280;70264;48.802;9.224;2023-07-29T01:21:38;98513.66;;;18.59
66473;BMP280;70264;48.802;9.224;2023-07-29T01:24:06;98525.34;;;18.61
66473;BMP280;70264;48.802;9.224;2023-07-29T01:26:36;98531.53;;;18.60
66473;BMP280;70264;48.802;9.224;2023-07-29T01:29:01;98518.66;;;18.49
66473;BMP280;70264;48.802;9.224;2023-07-29T01:31:40;98521.34;;;18.54
66473;BMP280;70264;48.802;9.224;2023-07-29T01:34:24;98519.38;;;18.61
66473;BMP280;70264;48.802;9.224;2023-07-29T01:36:54;98521.66;;;18.57
66473;BMP280;70264;48.802;9.224;2023-07-29T01:39:23;98513.72;;;18.47
66473;BMP280;70264;48.802;9.224;2023-07-29T01:41:50;98515.53;;;18.47
66473;BMP280;70264;48.802;9.224;2023-07-29T01:44:16;98516.63;;;18.51
66473;BMP280;70264;48.802;9.224;2023-07-29T01:46:46;98522.66;;;18.39
66473;BMP280;70264;48.802;9.224;2023-07-29T01:49:11;98517.09;;;18.48
66473;BMP280;70264;48.802;9.224;2023-07-29T01:51:37;98512.78;;;18.53
66473;BMP280;70264;48.802;9.224;2023-07-29T01:54:03;98509.97;;;18.55
66473;BMP280;70264;48.802;9.224;2023-07-29T01:56:30;98509.50;;;18.58
66473;BMP280;70264;48.802;9.224;2023-07-29T01:58:55;98506.91;;;18.58
66473;BMP280;70264;48.802;9.224;2023-07-29T02:01:21;98502.81;;;18.62
66473;BMP280;70264;48.802;9.224;2023-07-29T02:03:46;98500.78;;;18.64
66473;BMP280;70264;48.802;9.224;2023-07-29T02:06:12;98498.41;;;18.62
66473;BMP280;70264;48.802;9.224;2023-07-29T02:08:42;98502.28;;;18.60
66473;BMP280;70264;48.802;9.224;2023-07-29T02:11:07;98491.84;;;18.55
66473;BMP280;70264;48.802;9.224;2023-07-29T02:13:33;98486.41;;;18.56
66473;BMP280;70264;48.802;9.224;2023-07-29T02:15:58;98498.34;;;18.57
66473;BMP280;70264;48.802;9.224;2023-07-29T02:18:24;98492.59;;;18.55
66473;BMP280;70264;48.802;9.224;2023-07-29T02:20:56;98484.38;;;18.58
66473;BMP280;70264;48.802;9.224;2023-07-29T02:23:22;98486.34;;;18.51
66473;BMP280;70264;48.802;9.224;2023-07-29T02:25:49;98484.63;;;18.57
66473;BMP280;70264;48.802;9.224;2023-07-29T02:28:17;98481.63;;;18.48
66473;BMP280;70264;48.802;9.224;2023-07-29T02:30:48;98482.44;;;18.49
66473;BMP280;70264;48.802;9.224;2023-07-29T02:33:30;98490.03;;;18.38
66473;BMP280;70264;48.802;9.224;2023-07-29T02:35:58;98478.59;;;18.34
66473;BMP280;70264;48.802;9.224;2023-07-29T02:38:24;98469.56;;;18.37
66473;BMP280;70264;48.802;9.224;2023-07-29T02:40:51;98492.31;;;18.35
66473;BMP280;70264;48.802;9.224;2023-07-29T02:43:18;98491.75;;;18.33
66473;BMP280;70264;48.802;9.224;2023-07-29T02:45:44;98484.78;;;18.33
66473;BMP280;70264;48.802;9.224;2023-07-29T02:48:09;98475.34;;;18.44
66473;BMP280;70264;48.802;9.224;2023-07-29T02:50:37;98466.59;;;18.45
66473;BMP280;70264;48.802;9.224;2023-07-29T02:53:02;98476.94;;;18.45
66473;BMP280;70264;48.802;9.224;2023-07-29T02:55:30;98467.28;;;18.41
66473;BMP280;70264;48.802;9.224;2023-07-29T02:57:56;98476.47;;;18.48
66473;BMP280;70264;48.802;9.224;2023-07-29T03:00:21;98471.50;;;18.47
66473;BMP280;70264;48.802;9.224;2023-07-29T03:02:46;98478.75;;;18.45
66473;BMP280;70264;48.802;9.224;2023-07-29T03:05:11;98475.66;;;18.48
66473;BMP280;70264;48.802;9.224;2023-07-29T03:07:37;98463.44;;;18.43
66473;BMP280;70264;48.802;9.224;2023-07-29T03:10:03;98456.53;;;18.49
66473;BMP280;70264;48.802;9.224;2023-07-29T03:12:30;98451.19;;;18.38
66473;BMP280;70264;48.802;9.224;2023-07-29T03:14:56;98455.13;;;18.41
66473;BMP280;70264;48.802;9.224;2023-07-29T03:17:25;98453.94;;;18.32
66473;BMP280;70264;48.802;9.224;2023-07-29T03:19:52;98447.22;;;18.31
66473;BMP280;70264;48.802;9.224;2023-07-29T03:22:18;98446.19;;;18.32
66473;BMP280;70264;48.802;9.224;2023-07-29T03:24:43;98443.06;;;18.30
66473;BMP280;70264;48.802;9.224;2023-07-29T03:27:10;98441.72;;;18.27
66473;BMP280;70264;48.802;9.224;2023-07-29T03:29:36;98438.38;;;18.27
66473;BMP280;70264;48.802;9.224;2023-07-29T03:32:04;98435.84;;;18.32
66473;BMP280;70264;48.802;9.224;2023-07-29T03:34:29;98440.47;;;18.30
66473;BMP280;70264;48.802;9.224;2023-07-29T03:36:54;98447.22;;;18.31
66473;BMP280;70264;48.802;9.224;2023-07-29T03:39:20;98441.56;;;18.34
66473;BMP280;70264;48.802;9.224;2023-07-29T03:41:45;98445.25;;;18.38
66473;BMP280;70264;48.802;9.224;2023-07-29T03:44:12;98449.38;;;18.39
66473;BMP280;70264;48.802;9.224;2023-07-29T03:46:38;98440.84;;;18.38
66473;BMP280;70264;48.802;9.224;2023-07-29T03:49:03;98447.66;;;18.45
66473;BMP280;70264;48.802;9.224;2023-07-29T03:51:28;98445.09;;;18.45
66473;BMP280;70264;48.802;9.224;2023-07-29T03:53:56;98444.06;;;18.46
66473;BMP280;70264;48.802;9.224;2023-07-29T03:56:24;98443.03;;;18.47
66473;BMP280;70264;48.802;9.224;2023-07-29T03:58:52;98450.78;;;18.47
66473;BMP280;70264;48.802;9.224;2023-07-29T04:01:17;98453.78;;;18.55
66473;BMP280;70264;48.802;9.224;2023-07-29T04:03:45;98453.25;;;18.53
66473;BMP280;70264;48.802;9.224;2023-07-29T04:06:13;98460.06;;;18.59
66473;BMP280;70264;48.802;9.224;2023-07-29T04:08:41;98464.47;;;18.59
66473;BMP280;70264;48.802;9.224;2023-07-29T04:11:08;98458.50;;;18.58
66473;BMP280;70264;48.802;9.224;2023-07-29T04:13:39;98452.75;;;18.56
66473;BMP280;70264;48.802;9.224;2023-07-29T04:16:07;98445.63;;;18.47
66473;BMP280;70264;48.802;9.224;2023-07-29T04:18:33;98448.06;;;18.53
66473;BMP280;70264;48.802;9.224;2023-07-29T04:21:00;98438.19;;;18.50
66473;BMP280;70264;48.802;9.224;2023-07-29T04:23:30;98450.09;;;18.51
66473;BMP280;70264;48.802;9.224;2023-07-29T04:25:55;98453.78;;;18.55
66473;BMP280;70264;48.802;9.224;2023-07-29T04:28:23;98446.78;;;18.56
66473;BMP280;70264;48.802;9.224;2023-07-29T04:30:51;98442.41;;;18.56
66473;BMP280;70264;48.802;9.224;2023-07-29T04:33:16;98448.06;;;18.53
66473;BMP280;70264;48.802;9.224;2023-07-29T04:35:43;98456.91;;;18.57
66473;BMP280;70264;48.802;9.224;2023-07-29T04:38:09;98463.13;;;18.56
66473;BMP280;70264;48.802;9.224;2023-07-29T04:40:34;98458.28;;;18.60
66473;BMP280;70264;48.802;9.224;2023-07-29T04:43:01;98459.03;;;18.60
66473;BMP280;70264;48.802;9.224;2023-07-29T04:45:29;98466.66;;;18.50
66473;BMP280;70264;48.802;9.224;2023-07-29T04:47:55;98467.28;;;18.57
66473;BMP280;70264;48.802;9.224;2023-07-29T04:50:21;98480.53;;;18.44
66473;BMP280;70264;48.802;9.224;2023-07-29T04:52:46;98484.00;;;18.33
66473;BMP280;70264;48.802;9.224;2023-07-29T04:55:14;98491.44;;;18.46
66473;BMP280;70264;48.802;9.224;2023-07-29T04:57:39;98493.56;;;18.49
66473;BMP280;70264;48.802;9.224;2023-07-29T05:00:05;98497.09;;;18.43
66473;BMP280;70264;48.802;9.224;2023-07-29T05:02:32;98493.25;;;18.46
66473;BMP280;70264;48.802;9.224;2023-07-29T05:04:58;98483.75;;;18.51
66473;BMP280;70264;48.802;9.224;2023-07-29T05:07:23;98488.22;;;18.56
66473;BMP280;70264;48.802;9.224;2023-07-29T05:09:48;98483.75;;;18.51
66473;BMP280;70264;48.802;9.224;2023-07-29T05:12:34;98468.59;;;18.43
66473;BMP280;70264;48.802;9.224;2023-07-29T05:14:59;98469.78;;;18.52
66473;BMP280;70264;48.802;9.224;2023-07-29T05:17:27;98454.09;;;18.59
66473;BMP280;70264;48.802;9.224;2023-07-29T05:19:53;98448.44;;;18.62
66473;BMP280;70264;48.802;9.224;2023-07-29T05:22:20;98451.16;;;18.72
66473;BMP280;70264;48.802;9.224;2023-07-29T05:24:45;98453.03;;;18.76
66473;BMP280;70264;48.802;9.224;2023-07-29T05:27:15;98456.16;;;18.78
66473;BMP280;70264;48.802;9.224;2023-07-29T05:29:43;98450.03;;;18.84
66473;BMP280;70264;48.802;9.224;2023-07-29T05:32:09;98461.13;;;18.80
66473;BMP280;70264;48.802;9.224;2023-07-29T05:34:37;98466.63;;;18.88
66473;BMP280;70264;48.802;9.224;2023-07-29T05:37:04;98461.22;;;18.90
66473;BMP280;70264;48.802;9.224;2023-07-29T05:39:30;98464.91;;;18.94
66473;BMP280;70264;48.802;9.224;2023-07-29T05:41:57;98466.19;;;18.92
66473;BMP280;70264;48.802;9.224;2023-07-29T05:44:30;98461.59;;;18.99
66473;BMP280;70264;48.802;9.224;2023-07-29T05:46:58;98461.22;;;19.12
66473;BMP280;70264;48.802;9.224;2023-07-29T05:49:23;98452.31;;;19.24
66473;BMP280;70264;48.802;9.224;2023-07-29T05:51:51;98453.72;;;19.37
66473;BMP280;70264;48.802;9.224;2023-07-29T05:54:18;98460.13;;;19.51
66473;BMP280;70264;48.802;9.224;2023-07-29T05:56:48;98451.41;;;19.62
66473;BMP280;70264;48.802;9.224;2023-07-29T05:59:13;98443.91;;;19.66
66473;BMP280;70264;48.802;9.224;2023-07-29T06:01:39;98449.94;;;19.71
66473;BMP280;70264;48.802;9.224;2023-07-29T06:04:04;98430.81;;;19.82
66473;BMP280;70264;48.802;9.224;2023-07-29T06:06:32;98430.19;;;19.97
66473;BMP280;70264;48.802;9.224;2023-07-29T06:08:59;98426.06;;;20.01
66473;BMP280;70264;48.802;9.224;2023-07-29T06:11:25;98436.69;;;20.05
66473;BMP280;70264;48.802;9.224;2023-07-29T06:13:50;98437.88;;;20.29
66473;BMP280;70264;48.802;9.224;2023-07-29T06:16:18;98428.78;;;20.26
66473;BMP280;70264;48.802;9.224;2023-07-29T06:18:43;98433.97;;;20.21
66473;BMP280;70264;48.802;9.224;2023-07-29T06:21:11;98440.16;;;20.15
66473;BMP280;70264;48.802;9.224;2023-07-29T06:23:43;98446.13;;;20.16
66473;BMP280;70264;48.802;9.224;2023-07-29T06:26:08;98451.94;;;20.33
66473;BMP280;70264;48.802;9.224;2023-07-29T06:28:38;98437.88;;;20.24
66473;BMP280;70264;48.802;9.224;2023-07-29T06:31:06;98444.41;;;20.31
66473;BMP280;70264;48.802;9.224;2023-07-29T06:33:33;98457.09;;;20.28
66473;BMP280;70264;48.802;9.224;2023-07-29T06:36:01;98452.38;;;20.20
66473;BMP280;70264;48.802;9.224;2023-07-29T06:38:29;98453.97;;;20.21
66473;BMP280;70264;48.802;9.224;2023-07-29T06:40:54;98457.56;;;20.20
66473;BMP280;70264;48.802;9.224;2023-07-29T06:43:19;98454.19;;;20.14
66473;BMP280;70264;48.802;9.224;2023-07-29T06:45:45;98462.28;;;19.91
66473;BMP280;70264;48.802;9.224;2023-07-29T06:48:10;98465.13;;;19.90
66473;BMP280;70264;48.802;9.224;2023-07-29T06:50:38;98456.56;;;19.89
66473;BMP280;70264;48.802;9.224;2023-07-29T06:53:03;98450.78;;;19.82
66473;BMP280;70264;48.802;9.224;2023-07-29T06:55:33;98459.69;;;19.91
66473;BMP280;70264;48.802;9.224;2023-07-29T06:57:58;98468.78;;;19.89
66473;BMP280;70264;48.802;9.224;2023-07-29T07:00:26;98465.84;;;19.80
66473;BMP280;70264;48.802;9.224;2023-07-29T07:02:51;98474.38;;;19.80
66473;BMP280;70264;48.802;9.224;2023-07-29T07:05:21;98473.63;;;19.80
66473;BMP280;70264;48.802;9.224;2023-07-29T07:07:48;98487.63;;;19.79
66473;BMP280;70264;48.802;9.224;2023-07-29T07:10:14;98493.84;;;19.78
66473;BMP280;70264;48.802;9.224;2023-07-29T07:12:39;98491.47;;;19.76
66473;BMP280;70264;48.802;9.224;2023-07-29T07:15:07;98497.66;;;19.70
66473;BMP280;70264;48.802;9.224;2023-07-29T07:17:33;98490.91;;;19.69
66473;BMP280;70264;48.802;9.224;2023-07-29T07:19:58;98508.56;;;19.72
66473;BMP280;70264;48.802;9.224;2023-07-29T07:22:26;98506.81;;;19.78
66473;BMP280;70264;48.802;9.224;2023-07-29T07:24:51;98499.34;;;19.87
66473;BMP280;70264;48.802;9.224;2023-07-29T07:27:16;98488.06;;;19.98
66473;BMP280;70264;48.802;9.224;2023-07-29T07:29:44;98495.09;;;20.07
66473;BMP280;70264;48.802;9.224;2023-07-29T07:32:09;98492.13;;;20.20
66473;BMP280;70264;48.802;9.224;2023-07-29T07:34:35;98493.81;;;20.42
66473;BMP280;70264;48.802;9.224;2023-07-29T07:37:00;98489.47;;;20.57
66473;BMP280;70264;48.802;9.224;2023-07-29T07:39:26;98493.47;;;20.65
66473;BMP280;70264;48.802;9.224;2023-07-29T07:41:51;98490.88;;;20.75
66473;BMP280;70264;48.802;9.224;2023-07-29T07:44:19;98488.59;;;20.83
66473;BMP280;70264;48.802;9.224;2023-07-29T07:46:49;98483.94;;;20.91
66473;BMP280;70264;48.802;9.224;2023-07-29T07:49:14;98487.41;;;21.11
66473;BMP280;70264;48.802;9.224;2023-07-29T07:51:40;98502.25;;;21.16
66473;BMP280;70264;48.802;9.224;2023-07-29T07:54:07;98493.88;;;21.04
66473;BMP280;70264;48.802;9.224;2023-07-29T07:56:32;98495.72;;;21.08
66473;BMP280;70264;48.802;9.224;2023-07-29T07:59:00;98494.72;;;21.19
66473;BMP280;70264;48.802;9.224;2023-07-29T08:01:25;98501.22;;;21.17
66473;BMP280;70264;48.802;9.224;2023-07-29T08:03:53;98487.16;;;21.23
66473;BMP280;70264;48.802;9.224;2023-07-29T08:06:18;98479.16;;;21.40
66473;BMP280;70264;48.802;9.224;2023-07-29T08:08:46;98486.47;;;21.68
66473;BMP280;70264;48.802;9.224;2023-07-29T08:11:12;98485.44;;;21.69
66473;BMP280;70264;48.802;9.224;2023-07-29T08:13:37;98488.84;;;21.84
66473;BMP280;70264;48.802;9.224;2023-07-29T08:16:05;98506.03;;;21.91
66473;BMP280;70264;48.802;9.224;2023-07-29T08:18:32;98511.75;;;22.03
66473;BMP280;70264;48.802;9.224;2023-07-29T08:21:02;98506.00;;;22.36
66473;BMP280;70264;48.802;9.224;2023-07-29T08:23:34;98513.75;;;22.56
66473;BMP280;70264;48.802;9.224;2023-07-29T08:26:02;98529.38;;;22.66
66473;BMP280;70264;48.802;9.224;2023-07-29T08:28:30;98529.38;;;22.66
66473;BMP280;70264;48.802;9.224;2023-07-29T08:31:00;98519.03;;;22.21
66473;BMP280;70264;48.802;9.224;2023-07-29T08:33:28;98518.47;;;22.39
66473;BMP280;70264;48.802;9.224;2023-07-29T08:35:53;98507.31;;;22.28
66473;BMP280;70264;48.802;9.224;2023-07-29T08:38:19;98501.53;;;22.42
66473;BMP280;70264;48.802;9.224;2023-07-29T08:40:50;98500.47;;;22.53
66473;BMP280;70264;48.802;9.224;2023-07-29T08:43:32;98503.88;;;22.58
66473;BMP280;70264;48.802;9.224;2023-07-29T08:46:17;98505.44;;;22.59
66473;BMP280;70264;48.802;9.224;2023-07-29T08:49:27;98499.34;;;22.79
66473;BMP280;70264;48.802;9.224;2023-07-29T08:52:04;98506.06;;;22.90
66473;BMP280;70264;48.802;9.224;2023-07-29T08:54:29;98500.84;;;23.00
66473;BMP280;70264;48.802;9.224;2023-07-29T08:56:54;98502.91;;;22.98
66473;BMP280;70264;48.802;9.224;2023-07-29T08:59:20;98500.22;;;23.13
66473;BMP280;70264;48.802;9.224;2023-07-29T09:01:48;98511.81;;;23.36
66473;BMP280;70264;48.802;9.224;2023-07-29T09:04:14;98512.78;;;23.55
66473;BMP280;70264;48.802;9.224;2023-07-29T09:06:45;98508.47;;;23.69
66473;BMP280;70264;48.802;9.224;2023-07-29T09:09:12;98512.00;;;23.88
66473;BMP280;70264;48.802;9.224;2023-07-29T09:11:39;98505.06;;;24.03
66473;BMP280;70264;48.802;9.224;2023-07-29T09:14:07;98496.00;;;24.24
66473;BMP280;70264;48.802;9.224;2023-07-29T09:16:35;98491.13;;;24.36
66473;BMP280;70264;48.802;9.224;2023-07-29T09:19:04;98493.56;;;24.27
66473;BMP280;70264;48.802;9.224;2023-07-29T09:21:32;98498.94;;;24.41
66473;BMP280;70264;48.802;9.224;2023-07-29T09:24:05;98481.38;;;24.18
66473;BMP280;70264;48.802;9.224;2023-07-29T09:26:32;98488.25;;;24.14
66473;BMP280;70264;48.802;9.224;2023-07-29T09:28:59;98489.09;;;24.28
66473;BMP280;70264;48.802;9.224;2023-07-29T09:31:26;98488.78;;;24.58
66473;BMP280;70264;48.802;9.224;2023-07-29T09:34:02;98479.78;;;25.06
66473;BMP280;70264;48.802;9.224;2023-07-29T09:36:31;98480.34;;;25.41
66473;BMP280;70264;48.802;9.224;2023-07-29T09:38:59;98481.38;;;25.40
66473;BMP280;70264;48.802;9.224;2023-07-29T09:41:28;98476.72;;;25.83
66473;BMP280;70264;48.802;9.224;2023-07-29T09:43:57;98474.09;;;25.83
66473;BMP280;70264;48.802;9.224;2023-07-29T09:46:32;98482.75;;;25.97
66473;BMP280;70264;48.802;9.224;2023-07-29T09:48:58;98482.75;;;25.97
66473;BMP280;70264;48.802;9.224;2023-07-29T09:51:24;98493.38;;;24.90
66473;BMP280;70264;48.802;9.224;2023-07-29T09:53:50;98479.78;;;24.69
66473;BMP280;70264;48.802;9.224;2023-07-29T09:56:17;98470.22;;;24.78
66473;BMP280;70264;48.802;9.224;2023-07-29T09:58:44;98466.88;;;25.29
66473;BMP280;70264;48.802;9.224;2023-07-29T10:01:13;98469.31;;;25.06
66473;BMP280;70264;48.802;9.224;2023-07-29T10:03:42;98475.47;;;25.16
66473;BMP280;70264;48.802;9.224;2023-07-29T10:06:10;98461.81;;;25.51
66473;BMP280;70264;48.802;9.224;2023-07-29T10:08:35;98462.59;;;25.51
66473;BMP280;70264;48.802;9.224;2023-07-29T10:11:05;98461.59;;;25.80
66473;BMP280;70264;48.802;9.224;2023-07-29T10:13:33;98469.72;;;25.92
66473;BMP280;70264;48.802;9.224;2023-07-29T10:16:02;98463.66;;;26.10
66473;BMP280;70264;48.802;9.224;2023-07-29T10:18:28;98460.53;;;26.21
66473;BMP280;70264;48.802;9.224;2023-07-29T10:20:57;98455.09;;;25.77
66473;BMP280;70264;48.802;9.224;2023-07-29T10:23:25;98456.84;;;25.49
66473;BMP280;70264;48.802;9.224;2023-07-29T10:28:29;98476.94;;;25.40
66473;BMP280;70264;48.802;9.224;2023-07-29T10:30:56;98471.97;;;24.64
66473;BMP280;70264;48.802;9.224;2023-07-29T10:33:24;98476.50;;;24.35
66473;BMP280;70264;48.802;9.224;2023-07-29T10:35:49;98477.03;;;24.08
66473;BMP280;70264;48.802;9.224;2023-07-29T10:38:16;98478.19;;;23.68
66473;BMP280;70264;48.802;9.224;2023-07-29T10:41:02;98487.13;;;23.62
66473;BMP280;70264;48.802;9.224;2023-07-29T10:43:36;98491.72;;;23.75
66473;BMP280;70264;48.802;9.224;2023-07-29T10:51:29;98497.47;;;24.30
66473;BMP280;70264;48.802;9.224;2023-07-29T10:53:56;98489.03;;;24.38
66473;BMP280;70264;48.802;9.224;2023-07-29T10:56:33;98501.75;;;24.21
66473;BMP280;70264;48.802;9.224;2023-07-29T10:59:22;98489.84;;;24.33
66473;BMP280;70264;48.802;9.224;2023-07-29T11:01:56;98478.88;;;25.16
66473;BMP280;70264;48.802;9.224;2023-07-29T11:04:29;98466.50;;;25.54
66473;BMP280;70264;48.802;9.224;2023-07-29T11:12:40;98471.53;;;25.32
66473;BMP280;70264;48.802;9.224;2023-07-29T11:20:24;98469.59;;;25.56
66473;BMP280;70264;48.802;9.224;2023-07-29T11:22:49;98478.31;;;25.97
66473;BMP280;70264;48.802;9.224;2023-07-29T11:25:18;98478.59;;;26.23
66473;BMP280;70264;48.802;9.224;2023-07-29T11:27:46;98476.44;;;25.84
66473;BMP280;70264;48.802;9.224;2023-07-29T11:30:13;98478.56;;;25.96
66473;BMP280;70264;48.802;9.224;2023-07-29T11:32:45;98468.03;;;26.01
66473;BMP280;70264;48.802;9.224;2023-07-29T11:35:13;98477.50;;;25.83
66473;BMP280;70264;48.802;9.224;2023-07-29T11:37:40;98467.19;;;25.73
66473;BMP280;70264;48.802;9.224;2023-07-29T11:40:09;98465.28;;;26.06
66473;BMP280;70264;48.802;9.224;2023-07-29T11:42:37;98457.44;;;26.33
66473;BMP280;70264;48.802;9.224;2023-07-29T11:45:06;98451.91;;;26.07
66473;BMP280;70264;48.802;9.224;2023-07-29T11:47:34;98461.41;;;25.90
66473;BMP280;70264;48.802;9.224;2023-07-29T11:50:08;98460.63;;;26.16
66473;BMP280;70264;48.802;9.224;2023-07-29T11:55:06;98455.88;;;26.32
66473;BMP280;70264;48.802;9.224;2023-07-29T11:57:34;98465.75;;;26.49
66473;BMP280;70264;48.802;9.224;2023-07-29T12:00:02;98472.22;;;26.65
66473;BMP280;70264;48.802;9.224;2023-07-29T12:02:31;98470.81;;;26.32
66473;BMP280;70264;48.802;9.224;2023-07-29T12:04:57;98465.59;;;26.81
66473;BMP280;70264;48.802;9.224;2023-07-29T12:07:23;98462.78;;;27.44
66473;BMP280;70264;48.802;9.224;2023-07-29T12:09:51;98452.00;;;27.23
66473;BMP280;70264;48.802;9.224;2023-07-29T12:12:17;98445.72;;;27.64
66473;BMP280;70264;48.802;9.224;2023-07-29T12:14:44;98442.91;;;26.85
66473;BMP280;70264;48.802;9.224;2023-07-29T12:17:13;98436.25;;;27.23
66473;BMP280;70264;48.802;9.224;2023-07-29T12:19:41;98442.19;;;27.37
66473;BMP280;70264;48.802;9.224;2023-07-29T12:22:07;98437.44;;;26.95
66473;BMP280;70264;48.802;9.224;2023-07-29T12:24:37;98436.72;;;27.34
66473;BMP280;70264;48.802;9.224;2023-07-29T12:27:03;98434.75;;;27.39
66473;BMP280;70264;48.802;9.224;2023-07-29T12:29:29;98434.03;;;27.87
66473;BMP280;70264;48.802;9.224;2023-07-29T12:32:02;98430.50;;;27.91
66473;BMP280;70264;48.802;9.224;2023-07-29T12:34:29;98446.53;;;28.64
66473;BMP280;70264;48.802;9.224;2023-07-29T12:36:56;98444.97;;;28.63
66473;BMP280;70264;48.802;9.224;2023-07-29T12:39:28;98430.25;;;28.19
66473;BMP280;70264;48.802;9.224;2023-07-29T12:41:56;98433.78;;;28.14
66473;BMP280;70264;48.802;9.224;2023-07-29T12:44:26;98447.00;;;27.75
66473;BMP280;70264;48.802;9.224;2023-07-29T12:46:52;98432.28;;;28.30
66473;BMP280;70264;48.802;9.224;2023-07-29T12:49:17;98429.47;;;28.01
66473;BMP280;70264;48.802;9.224;2023-07-29T12:51:43;98446.03;;;28.19
66473;BMP280;70264;48.802;9.224;2023-07-29T12:54:13;98422.53;;;28.65
66473;BMP280;70264;48.802;9.224;2023-07-29T12:56:38;98432.91;;;28.44
66473;BMP280;70264;48.802;9.224;2023-07-29T12:59:07;98424.88;;;28.58
66473;BMP280;70264;48.802;9.224;2023-07-29T13:01:34;98424.22;;;28.35
66473;BMP280;70264;48.802;9.224;2023-07-29T13:04:02;98414.19;;;28.54
66473;BMP280;70264;48.802;9.224;2023-07-29T13:06:32;98424.06;;;28.75
66473;BMP280;70264;48.802;9.224;2023-07-29T13:08:57;98425.00;;;28.44
66473;BMP280;70264;48.802;9.224;2023-07-29T13:11:23;98406.91;;;28.51
66473;BMP280;70264;48.802;9.224;2023-07-29T13:13:48;98430.13;;;28.49
66473;BMP280;70264;48.802;9.224;2023-07-29T13:16:13;98428.88;;;28.38
66473;BMP280;70264;48.802;9.224;2023-07-29T13:18:39;98417.56;;;27.64
66473;BMP280;70264;48.802;9.224;2023-07-29T13:21:05;98415.38;;;28.14
66473;BMP280;70264;48.802;9.224;2023-07-29T13:23:33;98419.56;;;28.32
66473;BMP280;70264;48.802;9.224;2023-07-29T13:26:01;98419.56;;;28.84
66473;BMP280;70264;48.802;9.224;2023-07-29T13:28:27;98427.50;;;28.49
66473;BMP280;70264;48.802;9.224;2023-07-29T13:30:55;98407.47;;;28.83
66473;BMP280;70264;48.802;9.224;2023-07-29T13:33:20;98411.84;;;28.87
66473;BMP280;70264;48.802;9.224;2023-07-29T13:35:51;98412.47;;;28.24
66473;BMP280;70264;48.802;9.224;2023-07-29T13:38:16;98425.19;;;28.22
66473;BMP280;70264;48.802;9.224;2023-07-29T13:40:44;98419.56;;;28.07
66473;BMP280;70264;48.802;9.224;2023-07-29T13:43:11;98417.91;;;28.19
66473;BMP280;70264;48.802;9.224;2023-07-29T13:45:36;98416.25;;;27.84
66473;BMP280;70264;48.802;9.224;2023-07-29T13:48:07;98401.72;;;27.86
66473;BMP280;70264;48.802;9.224;2023-07-29T13:50:32;98412.91;;;28.09
66473;BMP280;70264;48.802;9.224;2023-07-29T13:52:57;98410.00;;;28.19
66473;BMP280;70264;48.802;9.224;2023-07-29T13:55:25;98409.50;;;28.17
66473;BMP280;70264;48.802;9.224;2023-07-29T13:57:51;98416.44;;;27.96
66473;BMP280;70264;48.802;9.224;2023-07-29T14:00:17;98406.59;;;27.62
66473;BMP280;70264;48.802;9.224;2023-07-29T14:02:42;98421.47;;;27.67
66473;BMP280;70264;48.802;9.224;2023-07-29T14:05:11;98414.34;;;27.67
66473;BMP280;70264;48.802;9.224;2023-07-29T14:07:39;98422.56;;;27.74
66473;BMP280;70264;48.802;9.224;2023-07-29T14:10:08;98422.66;;;27.61
66473;BMP280;70264;48.802;9.224;2023-07-29T14:12:34;98425.97;;;27.75
66473;BMP280;70264;48.802;9.224;2023-07-29T14:15:04;98430.69;;;28.12
66473;BMP280;70264;48.802;9.224;2023-07-29T14:17:32;98434.91;;;28.39
66473;BMP280;70264;48.802;9.224;2023-07-29T14:19:57;98432.13;;;28.95
66473;BMP280;70264;48.802;9.224;2023-07-29T14:22:25;98432.84;;;29.13
66473;BMP280;70264;48.802;9.224;2023-07-29T14:24:51;98429.44;;;30.09
66473;BMP280;70264;48.802;9.224;2023-07-29T14:27:16;98436.09;;;30.47
66473;BMP280;70264;48.802;9.224;2023-07-29T14:29:44;98430.41;;;30.04
66473;BMP280;70264;48.802;9.224;2023-07-29T14:32:09;98424.13;;;29.59
66473;BMP280;70264;48.802;9.224;2023-07-29T14:34:39;98413.75;;;29.62
66473;BMP280;70264;48.802;9.224;2023-07-29T14:37:05;98423.09;;;28.96
66473;BMP280;70264;48.802;9.224;2023-07-29T14:39:30;98426.56;;;28.28
66473;BMP280;70264;48.802;9.224;2023-07-29T14:41:58;98416.63;;;27.99